map of F46 home
F46 - Airport
Location
City:  Rockwall, Texas, United States
Name:Ralph M Hall/Rockwall Municipal Airport
FAA LID:F46

Details
Type:Airport (Airfield)
Use:Public/Civil
Latitude:3255'50"N (32.930594)
Longitude:9626'08"W (-96.435485)
Datum:WGS 1984
Elevation:574 ft (175 m)
Variation:2.97E (WMM2015v2 magnetic declination)
-0.10 annual change
Runways:1
Longest:3373 × 45 ft (1028 × 13.5 m), paved

Time
Time Zone:UTC-6 (DST-5)
Local Time:

Weather
METAR:KF46 041415Z AUTO 19009G17KT 3SM BR CLR 19/19 A2985 RMK AO2 T01910191

Related Locations
Nearby:
Farthest:RRG: 10899 mi / 17540 km
Plaine Corail [Sir Gatan Duval Airport (Plaine Corail Airport)], Rodrigues Island, MU

Find:

   beyond  
but within

Other Information
Maps:
NOTAMs:
Links:
Sources:

  
  • flag of United States
  • flag of Texas
  

Sectional Chart

Flight Planning
at skyvector.com

Satellite Image

Google Maps Satellite view

 

Copyright © 2004-2019 Karl L. Swartz. All rights reserved.
The Great Circle Mapper name and logo are trademarks of the Great Circle Mapper.
All other trademarks mentioned herein belong to their respective owners.
Please see credits for attibutions and further copyright information.

  Follow gcmap on Facebook Follow gcmap on Twitter GCmap on LinkedIn

hCard Microformat

Geo Microformat